createdAt,value
2019-05-12T00:01:58.605Z,102853.70
2019-05-12T00:04:49.689Z,102854.92
2019-05-12T00:07:41.018Z,102860.41
2019-05-12T00:10:32.530Z,102865.62
2019-05-12T00:13:23.953Z,102866.45
2019-05-12T00:16:15.174Z,102872.70
2019-05-12T00:19:09.069Z,102872.92
2019-05-12T00:21:59.863Z,102873.75
2019-05-12T00:24:51.325Z,102872.46
2019-05-12T00:27:42.710Z,102877.73
2019-05-12T00:30:42.069Z,102879.52
2019-05-12T00:33:33.728Z,102878.25
2019-05-12T00:36:25.018Z,102882.48
2019-05-12T00:39:18.905Z,102889.96
2019-05-12T00:42:09.425Z,102896.77
2019-05-12T00:45:01.159Z,102903.59
2019-05-12T00:47:53.672Z,102910.57
2019-05-12T00:50:45.256Z,102903.47
2019-05-12T00:53:40.876Z,102913.01
2019-05-12T00:56:30.736Z,102909.20
2019-05-12T00:59:22.203Z,102907.61
2019-05-12T01:02:13.350Z,102919.00
2019-05-12T01:05:05.387Z,102920.52
2019-05-12T01:07:58.252Z,102922.11
2019-05-12T01:10:50.266Z,102927.08
2019-05-12T01:13:41.787Z,102922.58
2019-05-12T01:16:33.516Z,102924.89
2019-05-12T01:19:24.830Z,102930.56
2019-05-12T01:22:18.706Z,102926.83
2019-05-12T01:25:11.028Z,102930.79
2019-05-12T01:28:02.779Z,102935.09
2019-05-12T01:30:58.177Z,102944.30
2019-05-12T01:33:49.816Z,102952.94
2019-05-12T01:36:41.182Z,102948.95
2019-05-12T01:39:32.782Z,102952.92
2019-05-12T01:42:24.374Z,102954.86
2019-05-12T01:45:17.986Z,102956.22
2019-05-12T01:48:09.610Z,102958.02
2019-05-12T01:51:00.983Z,102964.20
2019-05-12T01:53:52.422Z,102970.84
2019-05-12T01:56:44.174Z,102972.89
2019-05-12T01:59:38.011Z,102973.19
2019-05-12T02:02:29.851Z,102970.97
2019-05-12T02:05:22.462Z,102980.45
2019-05-12T02:08:19.034Z,102982.30
2019-05-12T02:11:37.843Z,102988.36
2019-05-12T02:14:28.691Z,103003.29
2019-05-12T02:17:20.903Z,103009.80
2019-05-12T02:20:13.571Z,103009.07
2019-05-12T02:23:05.222Z,103016.33
2019-05-12T02:25:58.570Z,103015.38
2019-05-12T02:28:50.465Z,103017.48
2019-05-12T02:31:41.676Z,103026.70
2019-05-12T02:34:34.976Z,103031.70
2019-05-12T02:37:26.688Z,103033.16
2019-05-12T02:40:19.195Z,103042.39
2019-05-12T02:43:10.910Z,103043.43
2019-05-12T02:46:04.757Z,103042.94
2019-05-12T02:48:57.062Z,103048.19
2019-05-12T02:51:49.318Z,103058.61
2019-05-12T02:54:51.938Z,103064.73
2019-05-12T02:57:35.921Z,103064.96
2019-05-12T03:00:27.436Z,103070.46
2019-05-12T03:03:24.893Z,103068.03
2019-05-12T03:06:15.268Z,103070.81
2019-05-12T03:09:09.438Z,103069.63
2019-05-12T03:12:05.842Z,103075.75
2019-05-12T03:14:55.972Z,103080.55
2019-05-12T03:17:47.315Z,103087.03
2019-05-12T03:20:39.073Z,103088.79
2019-05-12T03:23:30.712Z,103090.86
2019-05-12T03:26:24.648Z,103094.77
2019-05-12T03:29:16.403Z,103098.03
2019-05-12T03:32:08.939Z,103104.67
2019-05-12T03:35:00.836Z,103111.88
2019-05-12T03:37:54.769Z,103119.56
2019-05-12T03:40:45.530Z,103116.55
2019-05-12T03:43:37.134Z,103120.15
2019-05-12T03:46:28.500Z,103129.54
2019-05-12T03:49:24.242Z,103132.19
2019-05-12T03:52:15.265Z,103130.94
2019-05-12T03:55:26.275Z,103138.55
2019-05-12T03:58:00.289Z,103141.55
2019-05-12T04:00:55.194Z,103145.01
2019-05-12T04:03:45.284Z,103141.70
2019-05-12T04:06:37.348Z,103154.30
2019-05-12T04:09:28.679Z,103165.13
2019-05-12T04:12:19.946Z,103165.37
2019-05-12T04:15:11.299Z,103162.36
2019-05-12T04:18:05.530Z,103164.42
2019-05-12T04:20:55.828Z,103174.11
2019-05-12T04:23:47.160Z,103178.70
2019-05-12T04:26:38.704Z,103175.08
2019-05-12T04:29:30.260Z,103188.57
2019-05-12T04:32:24.656Z,103181.89
2019-05-12T04:35:15.131Z,103191.00
2019-05-12T04:38:06.731Z,103189.73
2019-05-12T04:40:57.919Z,103186.95
2019-05-12T04:43:49.140Z,103189.83
2019-05-12T04:46:40.692Z,103183.16
2019-05-12T04:49:34.579Z,103185.44
2019-05-12T04:52:25.463Z,103188.59
2019-05-12T04:55:17.613Z,103196.07
2019-05-12T04:58:08.995Z,103202.00
2019-05-12T05:01:00.443Z,103205.12
2019-05-12T05:03:54.550Z,103206.43
2019-05-12T05:06:45.242Z,103212.14
2019-05-12T05:09:38.018Z,103215.37
2019-05-12T05:12:29.607Z,103216.78
2019-05-12T05:15:21.263Z,103220.27
2019-05-12T05:18:13.380Z,103219.17
2019-05-12T05:21:04.946Z,103217.75
2019-05-12T05:23:56.655Z,103227.19
2019-05-12T05:26:48.829Z,103230.17
2019-05-12T05:29:40.159Z,103229.95
2019-05-12T05:32:33.739Z,103240.16
2019-05-12T05:35:28.986Z,103243.45
2019-05-12T05:38:20.691Z,103243.40
2019-05-12T05:41:13.252Z,103242.45
2019-05-12T05:44:04.585Z,103252.17
2019-05-12T05:46:56.835Z,103259.81
2019-05-12T05:49:49.191Z,103265.15
2019-05-12T05:52:40.926Z,103270.55
2019-05-12T05:55:34.468Z,103276.95
2019-05-12T05:58:26.282Z,103276.73
2019-05-12T06:01:18.078Z,103284.19
2019-05-12T06:04:09.504Z,103286.97
2019-05-12T06:07:01.175Z,103290.45
2019-05-12T06:09:53.687Z,103293.01
2019-05-12T06:12:50.686Z,103294.48
2019-05-12T06:15:40.844Z,103297.00
2019-05-12T06:18:33.302Z,103300.10
2019-05-12T06:21:29.177Z,103301.19
2019-05-12T06:24:20.014Z,103307.39
2019-05-12T06:27:16.243Z,103298.90
2019-05-12T06:30:06.265Z,103292.91
2019-05-12T06:32:58.134Z,103285.86
2019-05-12T06:35:49.362Z,103294.00
2019-05-12T06:38:40.837Z,103303.69
2019-05-12T06:41:33.850Z,103302.08
2019-05-12T06:44:25.353Z,103297.16
2019-05-12T06:47:17.624Z,103285.67
2019-05-12T06:50:10.199Z,103286.70
2019-05-12T06:53:01.610Z,103279.30
2019-05-12T06:55:54.035Z,103277.56
2019-05-12T06:58:45.785Z,103284.56
2019-05-12T07:01:37.138Z,103278.66
2019-05-12T07:04:28.590Z,103279.72
2019-05-12T07:07:20.045Z,103290.48
2019-05-12T07:10:26.832Z,103285.84
2019-05-12T07:13:06.133Z,103296.02
2019-05-12T07:16:19.096Z,103283.73
2019-05-12T07:19:16.130Z,103291.77
2019-05-12T07:22:00.888Z,103300.27
2019-05-12T07:24:54.731Z,103306.65
2019-05-12T07:27:53.622Z,103310.25
2019-05-12T07:30:38.729Z,103316.81
2019-05-12T07:33:32.897Z,103325.27
2019-05-12T07:36:24.262Z,103323.70
2019-05-12T07:39:18.049Z,103319.88
2019-05-12T07:42:10.447Z,103312.95
2019-05-12T07:45:04.553Z,103315.77
2019-05-12T07:47:59.420Z,103313.00
2019-05-12T07:50:50.386Z,103304.70
2019-05-12T07:53:46.920Z,103299.50
2019-05-12T07:56:35.863Z,103301.52
2019-05-12T07:59:35.692Z,103317.66
2019-05-12T08:02:23.282Z,103311.34
2019-05-12T08:05:19.785Z,103317.78
2019-05-12T08:08:10.794Z,103320.25
2019-05-12T08:11:04.466Z,103312.91
2019-05-12T08:13:55.183Z,103311.16
2019-05-12T08:16:46.664Z,103310.85
2019-05-12T08:19:38.647Z,103304.84
2019-05-12T08:22:29.965Z,103316.15
2019-05-12T08:25:24.731Z,103322.54
2019-05-12T08:28:18.321Z,103335.25
2019-05-12T08:31:07.421Z,103338.97
2019-05-12T08:33:58.743Z,103340.85
2019-05-12T08:36:53.056Z,103342.05
2019-05-12T08:39:44.268Z,103346.80
2019-05-12T08:42:36.168Z,103350.75
2019-05-12T08:45:34.014Z,103350.20
2019-05-12T08:48:24.820Z,103341.82
2019-05-12T08:51:19.807Z,103350.50
2019-05-12T08:54:08.490Z,103348.73
2019-05-12T08:57:01.218Z,103348.61
2019-05-12T09:00:02.145Z,103357.95
2019-05-12T09:02:50.535Z,103366.68
2019-05-12T09:05:40.345Z,103369.41
2019-05-12T09:08:37.843Z,103363.66
2019-05-12T09:11:26.926Z,103346.97
2019-05-12T09:14:18.365Z,103356.20
2019-05-12T09:17:09.900Z,103358.50
2019-05-12T09:20:06.064Z,103359.50
2019-05-12T09:23:00.587Z,103362.01
2019-05-12T09:25:48.416Z,103363.35
2019-05-12T09:28:47.312Z,103371.86
2019-05-12T09:31:33.654Z,103363.84
2019-05-12T09:34:25.478Z,103370.02
2019-05-12T09:37:17.277Z,103366.58
2019-05-12T09:40:08.769Z,103366.08
2019-05-12T09:43:05.228Z,103379.16
2019-05-12T09:45:56.451Z,103373.51
2019-05-12T09:48:52.061Z,103370.94
2019-05-12T09:51:42.701Z,103365.98
2019-05-12T09:54:40.273Z,103371.25
2019-05-12T09:57:26.271Z,103368.80
2019-05-12T10:00:18.209Z,103364.11
2019-05-12T10:03:09.676Z,103358.97
2019-05-12T10:06:03.570Z,103358.06
2019-05-12T10:08:54.908Z,103355.00
2019-05-12T10:11:53.825Z,103350.47
2019-05-12T10:14:45.650Z,103356.45
2019-05-12T10:17:34.033Z,103362.23
2019-05-12T10:20:29.225Z,103365.27
2019-05-12T10:23:22.665Z,103369.39
2019-05-12T10:26:14.575Z,103367.47
2019-05-12T10:29:16.521Z,103363.26
2019-05-12T10:31:58.606Z,103373.43
2019-05-12T10:34:51.207Z,103370.34
2019-05-12T10:37:43.734Z,103365.42
2019-05-12T10:40:36.279Z,103371.89
2019-05-12T10:43:27.905Z,103367.36
2019-05-12T10:46:26.869Z,103366.05
2019-05-12T10:49:13.926Z,103366.67
2019-05-12T10:52:07.625Z,103359.34
2019-05-12T10:55:00.256Z,103353.10
2019-05-12T10:57:52.865Z,103351.97
2019-05-12T11:00:45.178Z,103359.31
2019-05-12T11:03:42.167Z,103367.06
2019-05-12T11:06:30.550Z,103376.20
2019-05-12T11:09:27.394Z,103377.36
2019-05-12T11:12:19.163Z,103368.01
2019-05-12T11:15:08.535Z,103362.83
2019-05-12T11:18:11.846Z,103376.30
2019-05-12T11:21:04.053Z,103374.94
2019-05-12T11:23:55.655Z,103378.84
2019-05-12T11:26:47.210Z,103374.36
2019-05-12T11:29:46.042Z,103378.98
2019-05-12T11:32:34.708Z,103392.64
2019-05-12T11:35:24.594Z,103386.70
2019-05-12T11:38:16.204Z,103384.50
2019-05-12T11:41:10.030Z,103399.66
2019-05-12T11:44:03.982Z,103399.68
2019-05-12T11:46:55.278Z,103408.05
2019-05-12T11:49:46.781Z,103395.91
2019-05-12T11:52:38.336Z,103402.77
2019-05-12T11:55:31.839Z,103393.66
2019-05-12T11:58:23.683Z,103398.45
2019-05-12T12:01:16.967Z,103390.35
2019-05-12T12:04:08.417Z,103399.20
2019-05-12T12:06:59.933Z,103380.50
2019-05-12T12:09:56.269Z,103380.59
2019-05-12T12:12:49.117Z,103389.91
2019-05-12T12:15:37.977Z,103397.77
2019-05-12T12:18:29.561Z,103401.62
2019-05-12T12:21:20.849Z,103410.86
2019-05-12T12:24:13.240Z,103421.73
2019-05-12T12:27:04.777Z,103411.02
2019-05-12T12:29:56.366Z,103402.13
2019-05-12T12:32:50.418Z,103392.40
2019-05-12T12:35:40.359Z,103390.38
2019-05-12T12:38:33.469Z,103402.09
2019-05-12T12:41:24.904Z,103406.92
2019-05-12T12:44:16.899Z,103407.91
2019-05-12T12:47:09.577Z,103397.37
2019-05-12T12:50:01.362Z,103392.02
2019-05-12T12:52:54.522Z,103404.67
2019-05-12T12:55:46.137Z,103416.44
2019-05-12T12:58:37.588Z,103416.57
2019-05-12T13:01:32.682Z,103405.58
2019-05-12T13:04:24.708Z,103411.15
2019-05-12T13:07:15.563Z,103407.06
2019-05-12T13:10:09.430Z,103409.25
2019-05-12T13:13:03.413Z,103407.78
2019-05-12T13:15:53.668Z,103419.50
2019-05-12T13:18:45.311Z,103436.87
2019-05-12T13:21:36.660Z,103433.23
2019-05-12T13:24:28.037Z,103431.65
2019-05-12T13:27:25.174Z,103455.14
2019-05-12T13:30:20.172Z,103458.54
2019-05-12T13:33:08.725Z,103461.50
2019-05-12T13:35:59.350Z,103463.50
2019-05-12T13:38:50.694Z,103461.90
2019-05-12T13:41:43.718Z,103456.59
2019-05-12T13:44:36.409Z,103454.17
2019-05-12T13:47:29.158Z,103457.55
2019-05-12T13:50:26.096Z,103460.33
2019-05-12T13:53:14.918Z,103466.42
2019-05-12T13:56:06.478Z,103462.30
2019-05-12T13:58:58.049Z,103473.58
2019-05-12T14:01:49.339Z,103475.09
2019-05-12T14:04:40.983Z,103480.66
2019-05-12T14:07:34.384Z,103482.25
2019-05-12T14:10:25.640Z,103481.64
2019-05-12T14:13:17.830Z,103480.19
2019-05-12T14:16:09.403Z,103481.95
2019-05-12T14:19:00.710Z,103482.16
2019-05-12T14:21:54.244Z,103482.03
2019-05-12T14:24:46.958Z,103485.33
2019-05-12T14:27:38.986Z,103485.49
2019-05-12T14:30:33.670Z,103495.88
2019-05-12T14:33:29.796Z,103496.51
2019-05-12T14:36:22.041Z,103496.19
2019-05-12T14:39:13.348Z,103505.47
2019-05-12T14:42:05.298Z,103509.58
2019-05-12T14:44:56.893Z,103503.11
2019-05-12T14:47:48.481Z,103501.13
2019-05-12T14:50:39.871Z,103497.34
2019-05-12T14:53:33.037Z,103493.55
2019-05-12T14:56:24.490Z,103497.87
2019-05-12T14:59:15.909Z,103496.63
2019-05-12T15:02:07.939Z,103505.28
2019-05-12T15:05:00.158Z,103501.64
2019-05-12T15:07:56.483Z,103509.03
2019-05-12T15:10:45.440Z,103511.11
2019-05-12T15:13:36.809Z,103509.67
2019-05-12T15:16:31.858Z,103510.75
2019-05-12T15:19:27.818Z,103510.30
2019-05-12T15:22:14.936Z,103514.98
2019-05-12T15:25:07.265Z,103511.78
2019-05-12T15:27:58.604Z,103521.19
2019-05-12T15:30:50.901Z,103517.75
2019-05-12T15:33:44.021Z,103517.02
2019-05-12T15:36:35.562Z,103518.72
2019-05-12T15:39:27.116Z,103526.17
2019-05-12T15:42:19.132Z,103529.43
2019-05-12T15:45:12.464Z,103535.50
2019-05-12T15:48:04.207Z,103531.97
2019-05-12T15:50:59.534Z,103530.41
2019-05-12T15:53:49.095Z,103534.99
2019-05-12T15:56:40.393Z,103541.65
2019-05-12T15:59:34.425Z,103543.58
2019-05-12T16:02:25.569Z,103556.16
2019-05-12T16:05:20.170Z,103555.69
2019-05-12T16:08:10.501Z,103555.73
2019-05-12T16:11:04.849Z,103556.11
2019-05-12T16:13:59.284Z,103557.82
2019-05-12T16:16:48.230Z,103557.63
2019-05-12T16:19:39.540Z,103557.26
2019-05-12T16:22:38.837Z,103552.16
2019-05-12T16:25:27.346Z,103552.30
2019-05-12T16:28:22.920Z,103557.86
2019-05-12T16:31:10.667Z,103555.28
2019-05-12T16:34:05.872Z,103559.45
2019-05-12T16:36:55.697Z,103566.50
2019-05-12T16:39:47.857Z,103572.34
2019-05-12T16:42:40.807Z,103570.82
2019-05-12T16:45:34.079Z,103574.41
2019-05-12T16:48:32.865Z,103582.92
2019-05-12T16:51:18.580Z,103579.46
2019-05-12T16:54:10.567Z,103587.27
2019-05-12T16:57:06.358Z,103587.52
2019-05-12T17:00:02.475Z,103593.78
2019-05-12T17:02:53.709Z,103595.29
2019-05-12T17:05:42.177Z,103591.73
2019-05-12T17:08:34.408Z,103597.78
2019-05-12T17:11:30.668Z,103593.25
2019-05-12T17:14:19.977Z,103598.33
2019-05-12T17:17:11.567Z,103599.48
2019-05-12T17:20:04.530Z,103597.17
2019-05-12T17:22:59.897Z,103607.45
2019-05-12T17:25:51.302Z,103609.77
2019-05-12T17:28:43.612Z,103609.59
2019-05-12T17:31:36.291Z,103608.18
2019-05-12T17:34:27.769Z,103611.98
2019-05-12T17:37:19.101Z,103611.38
2019-05-12T17:40:15.502Z,103612.87
2019-05-12T17:43:10.022Z,103612.78
2019-05-12T17:46:01.291Z,103606.73
2019-05-12T17:48:50.458Z,103618.22
2019-05-12T17:51:42.275Z,103620.95
2019-05-12T17:54:34.248Z,103620.08
2019-05-12T17:57:25.842Z,103623.28
2019-05-12T18:00:18.795Z,103630.99
2019-05-12T18:03:20.541Z,103628.23
2019-05-12T18:06:04.144Z,103628.03
2019-05-12T18:08:55.905Z,103627.80
2019-05-12T18:11:54.284Z,103637.16
2019-05-12T18:14:46.830Z,103633.28
2019-05-12T18:17:39.059Z,103637.63
2019-05-12T18:20:31.264Z,103648.25
2019-05-12T18:23:28.326Z,103647.78
2019-05-12T18:26:16.091Z,103645.28
2019-05-12T18:29:07.727Z,103649.31
2019-05-12T18:31:59.568Z,103654.36
2019-05-12T18:34:53.794Z,103656.13
2019-05-12T18:37:44.245Z,103651.29
2019-05-12T18:40:37.317Z,103656.09
2019-05-12T18:43:28.651Z,103659.12
2019-05-12T18:46:20.049Z,103666.55
2019-05-12T18:49:12.743Z,103664.83
2019-05-12T18:52:04.423Z,103672.95
2019-05-12T18:54:57.125Z,103678.68
2019-05-12T18:57:50.962Z,103674.99
2019-05-12T19:00:43.680Z,103671.34
2019-05-12T19:03:46.853Z,103674.70
2019-05-12T19:06:28.120Z,103685.36
2019-05-12T19:09:20.082Z,103681.70
2019-05-12T19:12:19.611Z,103680.36
2019-05-12T19:15:10.275Z,103690.55
2019-05-12T19:17:59.602Z,103687.29
2019-05-12T19:20:54.230Z,103691.88
2019-05-12T19:23:45.189Z,103686.85
2019-05-12T19:26:38.422Z,103690.45
2019-05-12T19:29:35.133Z,103691.50
2019-05-12T19:32:28.084Z,103692.67
2019-05-12T19:35:20.218Z,103698.38
2019-05-12T19:38:08.966Z,103702.02
2019-05-12T19:41:00.983Z,103700.65
2019-05-12T19:43:53.549Z,103697.74
2019-05-12T19:46:49.367Z,103699.31
2019-05-12T19:49:47.632Z,103701.13
2019-05-12T19:52:31.532Z,103710.34
2019-05-12T19:55:24.118Z,103710.66
2019-05-12T19:58:15.909Z,103707.67
2019-05-12T20:01:07.394Z,103713.11
2019-05-12T20:03:58.727Z,103714.53
2019-05-12T20:06:50.299Z,103716.25
2019-05-12T20:09:48.403Z,103718.98
2019-05-12T20:12:35.287Z,103720.77
2019-05-12T20:15:30.141Z,103727.89
2019-05-12T20:18:19.535Z,103727.28
2019-05-12T20:21:13.613Z,103727.65
2019-05-12T20:24:04.940Z,103726.22
2019-05-12T20:26:56.300Z,103727.08
2019-05-12T20:29:47.942Z,103725.12
2019-05-12T20:32:39.245Z,103724.36
2019-05-12T20:35:33.361Z,103723.42
2019-05-12T20:38:33.742Z,103726.51
2019-05-12T20:41:22.673Z,103725.72
2019-05-12T20:44:17.136Z,103728.69
2019-05-12T20:47:06.401Z,103731.55
2019-05-12T20:49:56.687Z,103733.09
2019-05-12T20:52:53.419Z,103733.33
2019-05-12T20:55:44.218Z,103742.57
2019-05-12T20:58:41.002Z,103734.48
2019-05-12T21:01:30.239Z,103738.19
2019-05-12T21:04:30.807Z,103739.00
2019-05-12T21:07:21.901Z,103744.95
2019-05-12T21:10:08.855Z,103750.38
2019-05-12T21:13:00.193Z,103753.69
2019-05-12T21:15:54.031Z,103751.55
2019-05-12T21:18:50.485Z,103753.62
2019-05-12T21:21:38.641Z,103755.34
2019-05-12T21:24:36.044Z,103756.81
2019-05-12T21:27:23.665Z,103758.41
2019-05-12T21:30:15.578Z,103755.57
2019-05-12T21:33:06.890Z,103755.66
2019-05-12T21:35:58.257Z,103760.64
2019-05-12T21:38:49.763Z,103765.41
2019-05-12T21:41:50.493Z,103769.13
2019-05-12T21:44:35.379Z,103770.77
2019-05-12T21:47:27.341Z,103768.79
2019-05-12T21:50:24.314Z,103775.13
2019-05-12T21:53:17.465Z,103778.48
2019-05-12T21:56:05.658Z,103774.02
2019-05-12T21:58:58.302Z,103772.44
2019-05-12T22:01:50.547Z,103769.84
2019-05-12T22:04:43.540Z,103771.95
2019-05-12T22:07:39.741Z,103777.27
2019-05-12T22:10:30.815Z,103773.22
2019-05-12T22:13:21.493Z,103775.44
2019-05-12T22:16:14.204Z,103776.08
2019-05-12T22:19:06.817Z,103776.25
2019-05-12T22:22:00.897Z,103773.62
2019-05-12T22:24:53.631Z,103771.57
2019-05-12T22:27:44.352Z,103772.13
2019-05-12T22:30:35.684Z,103770.61
2019-05-12T22:33:27.145Z,103775.37
2019-05-12T22:36:25.627Z,103776.61
2019-05-12T22:39:14.158Z,103780.58
2019-05-12T22:42:04.893Z,103786.37
2019-05-12T22:45:01.618Z,103779.46
2019-05-12T22:47:49.135Z,103778.66
2019-05-12T22:50:43.482Z,103784.98
2019-05-12T22:53:35.356Z,103785.64
2019-05-12T22:56:26.666Z,103794.73
2019-05-12T22:59:17.905Z,103790.91
2019-05-12T23:02:09.154Z,103791.34
2019-05-12T23:05:00.473Z,103794.05
2019-05-12T23:07:54.469Z,103795.16
2019-05-12T23:10:51.271Z,103793.17
2019-05-12T23:13:42.684Z,103791.25
2019-05-12T23:16:33.581Z,103791.84
2019-05-12T23:19:25.211Z,103795.52
2019-05-12T23:22:16.559Z,103793.93
2019-05-12T23:25:11.385Z,103797.56
2019-05-12T23:28:08.529Z,103804.44
2019-05-12T23:30:54.705Z,103798.66
2019-05-12T23:33:46.332Z,103801.05
2019-05-12T23:36:39.309Z,103808.47
2019-05-12T23:39:32.409Z,103801.28
2019-05-12T23:42:24.458Z,103796.67
2019-05-12T23:45:16.125Z,103798.31
2019-05-12T23:48:07.609Z,103795.72
2019-05-12T23:50:59.387Z,103797.84
2019-05-12T23:53:51.081Z,103798.45
2019-05-12T23:56:44.431Z,103797.98
2019-05-12T23:59:37.102Z,103802.20
